Time;durP1;ratioP1;P1;durP2;ratioP2;P2;SDS_P1;SDS_P2;PMS_P1;PMS_P2;Temp;Humidity;BMP_temperature;BMP_pressure;BME280_temperature;BME280_humidity;BME280_pressure;Samples;Min_cycle;Max_cycle;Signal;HPM_P1;HPM_P2
2022/05/12 00:00:30;;;;;;;4.80;4.40;;;24.40;63.40;;;;;;5011744;28;20432;-76
2022/05/12 00:02:56;;;;;;;5.20;4.70;;;24.30;64.20;;;;;;5017371;28;20193;-75
2022/05/12 00:05:22;;;;;;;6.27;4.77;;;24.30;65.00;;;;;;5011658;28;20456;-76
2022/05/12 00:07:49;;;;;;;6.70;4.97;;;24.10;65.70;;;;;;5011133;28;20858;-76
2022/05/12 00:10:20;;;;;;;5.00;4.60;;;24.10;66.30;;;;;;5011844;28;20466;-75
2022/05/12 00:12:46;;;;;;;5.37;4.87;;;24.10;66.90;;;;;;5008740;28;21105;-75
2022/05/12 00:15:19;;;;;;;4.73;4.33;;;24.00;67.50;;;;;;5009379;28;20443;-76
2022/05/12 00:17:45;;;;;;;9.57;5.00;;;24.10;68.10;;;;;;5011000;28;20581;-76
2022/05/12 00:20:13;;;;;;;6.07;4.80;;;24.00;68.40;;;;;;5014544;28;20612;-76
2022/05/12 00:22:39;;;;;;;5.57;5.10;;;23.90;69.00;;;;;;5013732;28;20196;-75
2022/05/12 00:25:11;;;;;;;5.70;5.20;;;23.90;69.40;;;;;;5013433;28;20948;-75
2022/05/12 00:27:36;;;;;;;6.10;4.50;;;24.00;69.60;;;;;;5010304;28;20707;-75
2022/05/12 00:30:05;;;;;;;5.50;4.70;;;24.10;69.60;;;;;;5009827;28;20526;-77
2022/05/12 00:32:31;;;;;;;4.90;4.40;;;24.00;69.80;;;;;;5011220;28;20281;-78
2022/05/12 00:34:56;;;;;;;6.30;4.97;;;24.00;70.00;;;;;;5025595;28;21092;-77
2022/05/12 00:37:22;;;;;;;4.83;4.33;;;24.20;70.10;;;;;;5013297;28;20448;-78
2022/05/12 00:39:48;;;;;;;5.90;4.67;;;24.20;70.10;;;;;;5013754;28;20185;-77
2022/05/12 00:42:13;;;;;;;6.17;4.67;;;24.20;70.10;;;;;;5011054;28;20644;-77
2022/05/12 00:44:39;;;;;;;5.00;4.60;;;24.20;70.40;;;;;;5012028;28;21306;-75
2022/05/12 00:47:05;;;;;;;6.30;4.50;;;24.10;70.10;;;;;;5008390;28;20322;-76
2022/05/12 00:49:40;;;;;;;5.37;4.80;;;24.10;70.40;;;;;;5013454;28;20187;-76
2022/05/12 00:52:08;;;;;;;6.90;4.67;;;24.10;69.80;;;;;;5011252;28;21029;-76
2022/05/12 00:54:51;;;;;;;5.23;4.03;;;24.10;69.90;;;;;;5027114;28;20450;-75
2022/05/12 00:57:26;;;;;;;4.50;4.03;;;24.00;69.50;;;;;;5016477;28;20427;-75
2022/05/12 00:59:52;;;;;;;5.03;3.97;;;23.90;68.90;;;;;;5014051;28;21286;-77
2022/05/12 01:02:19;;;;;;;5.50;3.87;;;23.80;69.00;;;;;;5011281;28;20462;-77
2022/05/12 01:04:47;;;;;;;6.43;4.10;;;23.70;68.80;;;;;;5016439;28;20261;-77
2022/05/12 01:07:13;;;;;;;8.07;4.00;;;23.70;67.80;;;;;;5013226;28;20482;-77
2022/05/12 01:09:39;;;;;;;4.37;3.97;;;23.70;68.00;;;;;;5011976;28;20505;-76
2022/05/12 01:12:05;;;;;;;4.23;3.80;;;23.60;67.90;;;;;;5027740;28;20271;-76
2022/05/12 01:14:30;;;;;;;4.20;3.73;;;23.60;67.70;;;;;;5016177;28;22930;-76
2022/05/12 01:16:59;;;;;;;5.83;4.03;;;23.50;67.70;;;;;;5012293;28;20523;-75
2022/05/12 01:19:30;;;;;;;7.67;3.87;;;23.40;67.80;;;;;;5014262;28;20285;-76
2022/05/12 01:21:57;;;;;;;4.00;3.50;;;23.40;67.60;;;;;;5010912;28;20476;-75
2022/05/12 01:24:29;;;;;;;5.77;4.10;;;23.40;67.60;;;;;;5016360;28;21135;-75
2022/05/12 01:26:55;;;;;;;4.70;4.17;;;23.40;67.70;;;;;;5014034;28;20553;-75
2022/05/12 01:29:21;;;;;;;3.87;3.47;;;23.30;67.70;;;;;;5027969;28;20518;-77
2022/05/12 01:31:46;;;;;;;4.30;3.90;;;23.40;67.60;;;;;;5010576;28;20181;-75
2022/05/12 01:34:13;;;;;;;4.30;3.90;;;23.30;67.70;;;;;;5013925;28;20212;-77
2022/05/12 01:36:39;;;;;;;5.30;3.80;;;23.30;68.10;;;;;;5024255;28;20276;-79
2022/05/12 01:39:07;;;;;;;3.60;3.30;;;23.30;68.20;;;;;;5010900;28;20492;-74
2022/05/12 01:41:33;;;;;;;7.50;3.90;;;23.30;68.30;;;;;;5009435;28;20435;-77
2022/05/12 01:44:01;;;;;;;3.87;3.47;;;23.40;68.10;;;;;;5011909;28;20503;-78
2022/05/12 01:46:27;;;;;;;5.03;4.27;;;23.40;68.40;;;;;;5010982;28;20466;-78
2022/05/12 01:48:52;;;;;;;5.33;3.80;;;23.30;68.30;;;;;;5006890;28;20435;-77
2022/05/12 01:51:18;;;;;;;4.43;3.93;;;23.30;68.50;;;;;;5027103;28;20180;-76
2022/05/12 01:53:44;;;;;;;3.90;3.60;;;23.20;68.90;;;;;;5007206;28;21324;-77
2022/05/12 01:56:10;;;;;;;4.60;3.70;;;23.20;69.50;;;;;;5010733;28;20549;-77
2022/05/12 01:58:37;;;;;;;4.17;3.77;;;23.30;69.90;;;;;;5011850;28;20196;-75
2022/05/12 02:01:02;;;;;;;3.97;3.67;;;23.30;70.00;;;;;;5007805;28;20203;-79
2022/05/12 02:03:28;;;;;;;6.33;4.10;;;23.10;70.80;;;;;;5011420;28;20466;-75
2022/05/12 02:05:54;;;;;;;3.93;3.50;;;23.20;71.10;;;;;;5007628;28;20307;-76
2022/05/12 02:08:20;;;;;;;4.20;3.83;;;23.20;71.10;;;;;;5010568;28;20618;-75
2022/05/12 02:10:49;;;;;;;4.53;4.13;;;23.10;71.50;;;;;;5008624;28;20658;-78
2022/05/12 02:13:17;;;;;;;6.27;3.70;;;23.10;71.90;;;;;;5011236;28;20463;-79
2022/05/12 02:15:43;;;;;;;4.53;4.13;;;23.10;72.10;;;;;;5012049;28;20439;-74
2022/05/12 02:18:10;;;;;;;4.33;3.90;;;23.10;71.90;;;;;;5012234;28;20522;-78
2022/05/12 02:20:36;;;;;;;6.70;3.80;;;23.00;72.00;;;;;;5013158;28;20435;-79
2022/05/12 02:23:01;;;;;;;6.40;4.00;;;23.10;72.10;;;;;;5009096;28;20459;-75
2022/05/12 02:25:27;;;;;;;4.80;4.10;;;23.00;72.10;;;;;;5026455;28;20279;-76
2022/05/12 02:27:55;;;;;;;3.83;3.53;;;22.90;72.00;;;;;;5025093;28;20244;-75
2022/05/12 02:30:24;;;;;;;8.03;3.90;;;22.90;72.30;;;;;;5008573;28;20598;-77
2022/05/12 02:32:50;;;;;;;4.37;3.70;;;22.90;72.20;;;;;;5011066;28;20427;-75
2022/05/12 02:35:16;;;;;;;3.50;3.20;;;22.80;72.10;;;;;;5008070;28;20454;-79
2022/05/12 02:37:42;;;;;;;3.43;3.10;;;22.80;72.40;;;;;;5012085;28;20553;-80
2022/05/12 02:40:10;;;;;;;3.40;3.10;;;22.90;72.20;;;;;;5007416;28;20200;-76
2022/05/12 02:42:35;;;;;;;3.50;3.20;;;22.80;72.20;;;;;;5026979;28;20448;-76
2022/05/12 02:45:01;;;;;;;3.33;2.93;;;22.80;72.20;;;;;;5006906;28;20456;-78
2022/05/12 02:47:27;;;;;;;4.30;3.47;;;22.70;72.50;;;;;;5008024;28;20278;-78
2022/05/12 02:49:52;;;;;;;4.60;3.13;;;22.70;72.20;;;;;;5009781;28;20195;-74
2022/05/12 02:52:18;;;;;;;5.83;3.23;;;22.70;72.60;;;;;;5008997;28;20183;-78
2022/05/12 02:54:44;;;;;;;4.67;3.23;;;22.60;72.40;;;;;;5009820;28;20204;-78
2022/05/12 02:58:12;;;;;;;3.00;2.70;;;22.60;72.70;;;;;;5007317;28;20188;-77
2022/05/12 03:01:08;;;;;;;4.20;3.10;;;22.50;72.70;;;;;;4993401;28;20197;-76
2022/05/12 03:04:05;;;;;;;3.57;3.27;;;22.40;72.80;;;;;;4995410;28;21404;-78
2022/05/12 03:10:07;;;;;;;3.20;2.90;;;22.20;73.50;;;;;;4977063;28;20442;-77
2022/05/12 03:12:33;;;;;;;5.40;3.07;;;22.10;73.70;;;;;;5010228;28;20823;-79
2022/05/12 03:15:00;;;;;;;8.27;3.00;;;22.10;73.80;;;;;;5011313;28;20451;-76
2022/05/12 03:17:26;;;;;;;6.13;3.03;;;22.00;74.10;;;;;;5012988;28;20271;-76
2022/05/12 03:19:52;;;;;;;5.70;3.10;;;21.90;74.20;;;;;;5007166;28;20542;-79
2022/05/12 03:22:17;;;;;;;4.27;2.97;;;22.00;74.40;;;;;;5014325;28;20185;-76
2022/05/12 03:24:43;;;;;;;3.40;3.00;;;22.00;74.60;;;;;;5010662;28;20204;-78
2022/05/12 03:27:09;;;;;;;3.83;2.60;;;21.90;74.60;;;;;;5012621;28;20404;-76
2022/05/12 03:29:35;;;;;;;2.60;2.40;;;21.70;74.90;;;;;;5010400;28;21115;-79
2022/05/12 03:32:01;;;;;;;6.47;2.50;;;21.70;75.50;;;;;;5010021;28;20458;-77
2022/05/12 03:34:26;;;;;;;5.27;3.00;;;21.70;75.60;;;;;;5010332;28;20204;-79
2022/05/12 03:36:52;;;;;;;3.43;2.60;;;21.70;75.90;;;;;;5010012;28;20189;-76
2022/05/12 03:39:17;;;;;;;6.53;3.00;;;21.70;76.10;;;;;;5030625;28;20227;-76
2022/05/12 03:41:43;;;;;;;3.40;3.10;;;21.60;76.40;;;;;;5011279;28;20183;-78
2022/05/12 03:46:53;;;;;;;10.83;2.97;;;21.50;76.70;;;;;;5008668;28;20948;-78
2022/05/12 03:49:19;;;;;;;4.03;2.70;;;21.40;77.30;;;;;;5006313;28;20428;-76
2022/05/12 03:51:45;;;;;;;3.10;2.83;;;21.40;77.20;;;;;;5007155;28;20181;-78
2022/05/12 03:54:11;;;;;;;2.77;2.57;;;21.50;77.40;;;;;;5027516;28;20209;-75
2022/05/12 03:56:37;;;;;;;3.17;2.80;;;21.30;77.80;;;;;;5028986;28;20488;-76
2022/05/12 03:59:04;;;;;;;3.33;2.70;;;21.20;78.30;;;;;;5009198;28;20675;-77
2022/05/12 04:01:29;;;;;;;3.47;2.57;;;21.20;79.40;;;;;;5011384;28;20451;-78
2022/05/12 04:03:55;;;;;;;3.63;2.43;;;21.10;79.30;;;;;;5006710;28;20470;-78
2022/05/12 04:06:20;;;;;;;5.23;2.93;;;21.00;79.60;;;;;;5009191;28;20220;-76
2022/05/12 04:08:46;;;;;;;4.43;3.10;;;21.00;79.90;;;;;;5027593;28;20697;-77
2022/05/12 04:11:12;;;;;;;5.70;2.87;;;20.70;80.40;;;;;;5026063;28;20176;-76
2022/05/12 04:13:38;;;;;;;3.37;2.30;;;20.70;81.90;;;;;;5012108;28;20193;-79
2022/05/12 04:16:04;;;;;;;5.40;2.80;;;20.60;81.30;;;;;;5006660;28;20489;-78
2022/05/12 04:18:30;;;;;;;10.80;3.47;;;20.60;81.60;;;;;;5032188;28;20609;-77
2022/05/12 04:20:56;;;;;;;2.60;2.40;;;20.70;82.20;;;;;;5013236;28;20566;-77
2022/05/12 04:23:21;;;;;;;3.33;2.80;;;20.60;82.10;;;;;;5014762;28;20962;-75
2022/05/12 04:25:47;;;;;;;5.50;3.00;;;20.70;82.30;;;;;;5011518;28;20471;-75
2022/05/12 04:28:13;;;;;;;3.00;2.70;;;20.70;82.70;;;;;;5014050;28;20672;-76
2022/05/12 04:30:39;;;;;;;4.70;2.60;;;20.60;82.90;;;;;;5015158;28;20191;-78
2022/05/12 04:35:49;;;;;;;3.10;2.80;;;20.60;83.80;;;;;;5013005;28;20248;-79
2022/05/12 04:38:14;;;;;;;10.37;2.60;;;20.70;83.80;;;;;;5016561;28;20435;-76
2022/05/12 04:40:40;;;;;;;6.93;4.70;;;20.80;83.70;;;;;;5014089;28;20234;-79
2022/05/12 04:43:06;;;;;;;4.33;2.60;;;21.00;83.60;;;;;;5014233;28;20665;-75
2022/05/12 04:45:33;;;;;;;3.80;2.77;;;21.00;83.80;;;;;;5017209;28;20259;-79
2022/05/12 04:47:59;;;;;;;6.30;3.00;;;21.00;83.80;;;;;;5012765;28;20215;-78
2022/05/12 04:50:32;;;;;;;3.43;2.70;;;21.00;84.10;;;;;;5016025;28;20963;-76
2022/05/12 04:52:58;;;;;;;3.20;2.90;;;21.10;84.20;;;;;;5012555;28;20196;-77
2022/05/12 04:55:24;;;;;;;5.70;2.73;;;21.00;84.00;;;;;;5019495;28;20445;-75
2022/05/12 04:57:53;;;;;;;5.60;3.73;;;20.90;84.40;;;;;;5012018;28;20435;-79
2022/05/12 05:00:26;;;;;;;7.40;2.30;;;20.90;84.50;;;;;;5014186;28;20540;-75
2022/05/12 05:02:52;;;;;;;7.93;2.27;;;21.00;84.90;;;;;;5012734;28;20516;-78
2022/05/12 05:05:18;;;;;;;4.13;3.43;;;21.00;84.90;;;;;;5015756;28;20436;-74
2022/05/12 05:07:43;;;;;;;3.20;2.60;;;20.80;85.70;;;;;;5015481;28;20266;-79
2022/05/12 05:10:12;;;;;;;3.90;3.20;;;20.80;86.00;;;;;;5009439;28;20648;-76
2022/05/12 05:12:41;;;;;;;2.60;2.40;;;20.90;85.70;;;;;;5011420;28;20555;-77
2022/05/12 05:15:08;;;;;;;2.60;2.33;;;20.90;85.80;;;;;;5023266;28;20432;-75
2022/05/12 05:17:37;;;;;;;3.10;2.37;;;21.00;86.10;;;;;;5008042;28;20432;-75
2022/05/12 05:20:05;;;;;;;3.83;2.30;;;21.00;86.20;;;;;;5008486;28;21972;-78
2022/05/12 05:22:33;;;;;;;3.90;2.77;;;21.00;87.20;;;;;;5011478;28;20456;-75
2022/05/12 05:24:59;;;;;;;7.10;2.57;;;21.10;86.40;;;;;;5006880;28;20454;-77
2022/05/12 05:27:25;;;;;;;2.60;2.40;;;21.00;86.50;;;;;;5013112;28;20507;-77
2022/05/12 05:29:51;;;;;;;5.50;2.90;;;20.90;87.00;;;;;;5010685;28;20559;-78
2022/05/12 05:32:16;;;;;;;5.40;2.90;;;20.90;87.20;;;;;;5007798;28;20258;-77
2022/05/12 05:34:42;;;;;;;5.73;2.70;;;20.90;87.50;;;;;;5011527;28;20455;-78
2022/05/12 05:37:08;;;;;;;3.50;2.57;;;20.90;87.80;;;;;;5007005;28;20180;-75
2022/05/12 05:39:33;;;;;;;4.70;4.20;;;20.90;88.00;;;;;;5028384;28;20176;-75
2022/05/12 05:42:09;;;;;;;7.03;5.43;;;20.80;88.40;;;;;;5009678;28;20832;-78
2022/05/12 05:44:35;;;;;;;3.43;2.70;;;20.90;88.40;;;;;;5028359;28;20212;-75
2022/05/12 05:47:01;;;;;;;3.07;2.60;;;20.80;87.90;;;;;;5010948;28;20539;-77
2022/05/12 05:49:28;;;;;;;4.10;2.60;;;20.90;88.70;;;;;;5012204;28;20177;-75
2022/05/12 05:54:39;;;;;;;3.90;2.50;;;20.90;89.00;;;;;;5008021;28;20458;-75
2022/05/12 05:57:04;;;;;;;2.70;2.50;;;21.00;88.80;;;;;;5006556;28;20436;-77
2022/05/12 05:59:30;;;;;;;3.30;2.30;;;21.00;89.00;;;;;;5008909;28;21009;-76
2022/05/12 06:01:57;;;;;;;2.80;2.50;;;20.80;89.60;;;;;;5008620;28;20266;-74
2022/05/12 06:04:22;;;;;;;4.90;2.50;;;20.90;90.00;;;;;;5013232;28;20196;-76
2022/05/12 06:06:48;;;;;;;4.93;2.43;;;20.80;90.20;;;;;;5007734;28;20494;-77
2022/05/12 06:09:15;;;;;;;2.33;2.13;;;20.60;90.70;;;;;;5024623;28;20192;-76
2022/05/12 06:11:44;;;;;;;3.30;2.40;;;20.80;90.90;;;;;;5029302;28;20195;-78
2022/05/12 06:14:11;;;;;;;3.17;2.70;;;20.80;90.60;;;;;;5013926;28;21012;-77
2022/05/12 06:16:40;;;;;;;3.03;2.60;;;20.70;90.90;;;;;;5013682;28;20488;-77
2022/05/12 06:19:06;;;;;;;4.47;2.70;;;20.60;91.20;;;;;;5012917;28;20431;-75
2022/05/12 06:21:35;;;;;;;3.53;2.40;;;20.70;91.30;;;;;;5011086;28;20446;-75
2022/05/12 06:24:00;;;;;;;5.33;2.60;;;20.70;91.30;;;;;;5010357;28;20452;-77
2022/05/12 06:26:26;;;;;;;2.57;2.37;;;20.70;91.50;;;;;;5008826;28;20493;-77
2022/05/12 06:28:52;;;;;;;4.73;3.13;;;20.60;91.50;;;;;;5007888;28;20256;-74
2022/05/12 06:31:24;;;;;;;3.70;2.60;;;20.60;91.80;;;;;;5010433;28;20203;-76
2022/05/12 06:33:53;;;;;;;5.87;3.60;;;20.70;91.60;;;;;;5008781;28;20208;-74
2022/05/12 06:36:22;;;;;;;6.60;3.83;;;20.70;91.60;;;;;;5010592;28;21488;-76
2022/05/12 06:38:48;;;;;;;3.47;3.17;;;20.70;91.80;;;;;;5005326;28;20974;-76
2022/05/12 06:41:14;;;;;;;2.47;2.27;;;20.90;91.50;;;;;;5010081;28;20563;-76
2022/05/12 06:43:45;;;;;;;3.07;2.30;;;21.10;91.00;;;;;;5010393;28;20197;-73
2022/05/12 06:46:12;;;;;;;2.93;2.33;;;21.10;91.30;;;;;;5007765;28;20491;-74
2022/05/12 06:48:37;;;;;;;3.67;2.43;;;21.20;91.40;;;;;;5010142;28;20466;-75
2022/05/12 06:51:03;;;;;;;3.80;2.67;;;21.20;91.70;;;;;;5008237;28;20463;-75
2022/05/12 06:53:29;;;;;;;3.07;2.60;;;21.30;91.70;;;;;;5010266;28;20295;-74
2022/05/12 06:55:55;;;;;;;4.30;2.67;;;21.40;91.60;;;;;;5009582;28;20860;-75
2022/05/12 06:58:21;;;;;;;3.23;2.93;;;21.30;90.90;;;;;;5009842;28;20526;-74
2022/05/12 07:00:47;;;;;;;6.43;3.43;;;21.20;90.80;;;;;;5007985;28;20176;-73
2022/05/12 07:03:13;;;;;;;8.53;2.70;;;21.30;91.10;;;;;;5006202;28;20532;-74
2022/05/12 07:05:40;;;;;;;4.33;2.77;;;21.30;91.10;;;;;;5008395;28;20718;-74
2022/05/12 07:08:07;;;;;;;3.13;2.83;;;21.40;91.20;;;;;;5007088;28;20477;-74
2022/05/12 07:10:33;;;;;;;4.93;2.63;;;21.40;90.70;;;;;;5008741;28;20519;-72
2022/05/12 07:12:59;;;;;;;6.23;2.60;;;21.50;90.70;;;;;;5012734;28;20437;-73
2022/05/12 07:15:27;;;;;;;5.97;2.90;;;21.50;90.50;;;;;;4999318;28;20186;-73
2022/05/12 07:17:55;;;;;;;5.10;3.03;;;21.40;90.10;;;;;;5007682;28;21080;-74
2022/05/12 07:28:37;;;;;;;2.90;2.60;;;21.10;90.70;;;;;;5005934;28;20450;-72
2022/05/12 07:31:05;;;;;;;2.90;2.27;;;21.20;90.70;;;;;;5007968;28;20502;-73
2022/05/12 07:33:35;;;;;;;9.93;2.90;;;21.10;90.90;;;;;;5023891;28;20459;-72
2022/05/12 07:36:06;;;;;;;4.73;2.63;;;21.20;90.90;;;;;;5009353;28;20466;-73
2022/05/12 07:38:32;;;;;;;6.97;2.60;;;21.20;91.00;;;;;;5004099;28;21060;-72
2022/05/12 07:40:58;;;;;;;3.77;2.30;;;21.20;90.90;;;;;;5009732;28;21232;-73
2022/05/12 07:43:24;;;;;;;4.50;2.70;;;21.20;90.80;;;;;;5009086;28;20475;-73
2022/05/12 07:45:50;;;;;;;8.07;2.60;;;21.30;90.80;;;;;;5010780;28;20197;-73
2022/05/12 07:48:16;;;;;;;2.80;2.20;;;21.20;90.60;;;;;;5015079;28;20446;-73
2022/05/12 07:50:41;;;;;;;8.57;2.90;;;21.10;91.00;;;;;;5010231;28;20200;-73
2022/05/12 07:53:08;;;;;;;3.10;2.57;;;21.10;91.40;;;;;;5011758;28;20462;-73
2022/05/12 07:55:34;;;;;;;4.23;2.67;;;21.20;91.40;;;;;;5006786;28;20177;-74
2022/05/12 07:58:00;;;;;;;4.03;2.63;;;21.30;91.20;;;;;;5011524;28;20883;-74
2022/05/12 08:00:26;;;;;;;4.63;2.73;;;21.40;91.60;;;;;;5008250;28;20537;-75
2022/05/12 08:02:52;;;;;;;3.73;2.57;;;21.40;91.20;;;;;;5010140;28;20458;-73
2022/05/12 08:05:18;;;;;;;3.17;2.37;;;21.50;91.40;;;;;;5010819;28;20935;-74
2022/05/12 08:07:45;;;;;;;9.00;2.50;;;21.50;91.10;;;;;;5014908;28;20471;-74
2022/05/12 08:10:12;;;;;;;3.23;2.33;;;21.50;91.40;;;;;;5009786;28;20471;-75
2022/05/12 08:12:38;;;;;;;4.70;3.77;;;21.50;91.20;;;;;;5013249;28;20439;-75
2022/05/12 08:15:05;;;;;;;7.20;2.50;;;21.50;91.40;;;;;;5011022;28;20462;-74
2022/05/12 08:17:30;;;;;;;5.40;2.50;;;21.50;91.10;;;;;;5027392;28;20200;-72
2022/05/12 08:19:57;;;;;;;3.53;2.57;;;21.50;91.40;;;;;;5015036;28;20473;-73
2022/05/12 08:22:24;;;;;;;5.20;2.47;;;21.50;91.60;;;;;;5011951;28;20691;-75
2022/05/12 08:24:50;;;;;;;10.40;2.80;;;21.50;91.60;;;;;;5016129;28;20504;-74
2022/05/12 08:27:16;;;;;;;4.33;2.70;;;21.70;91.90;;;;;;5013386;28;20462;-75
2022/05/12 08:29:41;;;;;;;2.83;2.53;;;21.70;91.50;;;;;;5014813;28;20446;-75
2022/05/12 08:32:07;;;;;;;3.93;2.60;;;21.70;91.20;;;;;;5010246;28;20191;-74
2022/05/12 08:34:33;;;;;;;7.30;2.90;;;21.80;91.20;;;;;;5015110;28;20277;-74
2022/05/12 08:36:59;;;;;;;4.00;2.50;;;21.70;91.30;;;;;;5013099;28;20423;-75
2022/05/12 08:39:24;;;;;;;3.30;2.33;;;21.70;91.50;;;;;;5009282;28;20634;-74
2022/05/12 08:41:57;;;;;;;2.93;2.40;;;21.70;91.20;;;;;;5015985;28;20878;-74
2022/05/12 08:44:23;;;;;;;3.30;2.43;;;21.70;91.30;;;;;;5011957;28;20208;-74
2022/05/12 08:46:57;;;;;;;2.67;2.20;;;21.70;91.60;;;;;;5007577;28;20467;-73
2022/05/12 08:49:30;;;;;;;4.40;2.57;;;21.80;91.40;;;;;;5015864;28;20175;-74
2022/05/12 08:52:20;;;;;;;3.23;2.90;;;21.80;91.10;;;;;;5026161;28;20474;-73
2022/05/12 08:54:56;;;;;;;4.03;2.73;;;21.80;91.30;;;;;;5024362;28;20463;-74
2022/05/12 08:57:32;;;;;;;6.83;2.73;;;21.90;91.20;;;;;;5009521;28;20470;-72
2022/05/12 09:00:05;;;;;;;3.87;2.83;;;22.00;91.30;;;;;;5007834;28;20442;-73
2022/05/12 09:02:42;;;;;;;5.27;2.80;;;22.20;91.10;;;;;;5011030;28;20973;-74
2022/05/12 09:05:12;;;;;;;4.80;2.80;;;22.40;91.00;;;;;;5027557;28;20534;-73
2022/05/12 09:08:01;;;;;;;2.60;2.33;;;22.50;90.60;;;;;;5012736;28;20459;-74
2022/05/12 09:10:30;;;;;;;3.53;2.77;;;22.50;90.30;;;;;;5014962;28;20944;-74
2022/05/12 09:13:02;;;;;;;3.20;2.50;;;22.70;90.50;;;;;;5010345;28;20897;-72
2022/05/12 09:15:34;;;;;;;3.90;2.60;;;22.90;90.10;;;;;;5006761;28;20881;-74
2022/05/12 09:18:02;;;;;;;3.37;2.70;;;23.00;89.70;;;;;;5004275;28;20864;-75
2022/05/12 09:20:31;;;;;;;4.90;3.10;;;22.80;89.00;;;;;;5007296;28;20432;-75
2022/05/12 09:22:58;;;;;;;6.00;3.13;;;22.70;89.20;;;;;;5011258;28;20491;-73
2022/05/12 09:25:41;;;;;;;4.47;2.90;;;22.60;89.80;;;;;;5007529;28;20447;-74
2022/05/12 09:28:24;;;;;;;3.60;2.60;;;22.60;90.10;;;;;;5012189;28;20885;-73
2022/05/12 09:30:55;;;;;;;5.40;2.60;;;22.80;90.00;;;;;;5008203;28;20451;-73
2022/05/12 09:33:34;;;;;;;4.10;3.00;;;22.70;90.30;;;;;;5010867;28;20596;-73
2022/05/12 09:36:03;;;;;;;3.00;2.70;;;22.80;89.60;;;;;;5008177;28;20446;-73
2022/05/12 09:38:29;;;;;;;5.33;2.30;;;23.00;89.80;;;;;;5010391;28;20427;-72
2022/05/12 09:40:56;;;;;;;3.40;3.10;;;23.10;89.50;;;;;;5007141;28;20443;-72
2022/05/12 09:43:32;;;;;;;6.03;2.90;;;23.10;88.00;;;;;;5011561;28;20451;-73
2022/05/12 09:46:00;;;;;;;2.70;2.43;;;23.00;88.60;;;;;;5011374;28;20439;-74
2022/05/12 09:48:28;;;;;;;4.90;2.90;;;23.10;87.40;;;;;;5014459;28;20424;-73
2022/05/12 09:51:25;;;;;;;5.30;2.83;;;23.00;88.40;;;;;;5012338;28;20431;-73
2022/05/12 09:53:54;;;;;;;3.40;2.83;;;23.10;87.40;;;;;;5010592;28;20692;-72
2022/05/12 09:56:32;;;;;;;5.30;2.80;;;22.90;87.60;;;;;;5013600;28;20424;-74
2022/05/12 09:59:21;;;;;;;4.50;2.63;;;23.00;88.70;;;;;;5028881;28;20958;-75
2022/05/12 10:02:00;;;;;;;2.63;2.43;;;23.20;88.10;;;;;;5027496;28;20521;-72
2022/05/12 10:10:25;;;;;;;3.50;2.70;;;23.00;86.70;;;;;;5010332;28;21181;-73
2022/05/12 10:13:05;;;;;;;3.83;2.80;;;23.00;87.00;;;;;;5012416;28;20439;-72
2022/05/12 10:15:35;;;;;;;4.30;3.30;;;23.10;86.50;;;;;;5008749;28;20436;-74
2022/05/12 10:18:16;;;;;;;4.00;2.80;;;23.30;86.80;;;;;;5011297;28;20432;-72
2022/05/12 10:20:46;;;;;;;5.53;2.63;;;23.60;85.50;;;;;;5009622;28;20589;-74
2022/05/12 10:23:14;;;;;;;4.20;2.60;;;23.40;84.90;;;;;;5010131;28;20988;-74
2022/05/12 10:25:58;;;;;;;4.53;2.60;;;23.60;85.50;;;;;;5012761;28;20430;-73
2022/05/12 10:28:59;;;;;;;4.80;4.40;;;23.40;84.60;;;;;;5014444;28;20435;-74
2022/05/12 10:31:27;;;;;;;5.23;2.90;;;23.50;85.10;;;;;;5005634;28;20510;-73
2022/05/12 10:34:07;;;;;;;5.50;5.00;;;23.40;85.30;;;;;;5013834;28;20542;-74
2022/05/12 10:36:44;;;;;;;5.43;3.20;;;23.60;85.60;;;;;;5009091;28;20841;-75
2022/05/12 10:39:41;;;;;;;3.60;3.00;;;23.70;84.10;;;;;;5029937;28;20447;-75
2022/05/12 10:42:32;;;;;;;3.30;3.00;;;23.70;84.20;;;;;;5011325;28;20555;-74
2022/05/12 10:45:22;;;;;;;4.03;3.30;;;23.80;85.10;;;;;;5007329;28;20448;-74
2022/05/12 10:47:53;;;;;;;3.40;3.00;;;24.00;84.30;;;;;;5011110;28;20463;-74
2022/05/12 10:50:36;;;;;;;4.37;2.67;;;23.90;83.80;;;;;;5015325;28;20451;-73
2022/05/12 10:53:26;;;;;;;6.37;3.03;;;23.90;83.90;;;;;;5025248;28;20456;-73
2022/05/12 10:56:11;;;;;;;3.30;2.60;;;23.80;84.80;;;;;;5010876;28;21113;-74
2022/05/12 10:59:01;;;;;;;3.27;2.97;;;23.90;84.50;;;;;;5012678;28;20493;-76
2022/05/12 11:01:49;;;;;;;8.00;3.87;;;23.80;84.50;;;;;;5024231;28;21236;-73
2022/05/12 11:04:21;;;;;;;8.37;4.00;;;23.80;84.20;;;;;;5006537;28;20458;-74
2022/05/12 11:06:52;;;;;;;4.63;3.50;;;23.90;84.20;;;;;;5004331;28;20562;-77
2022/05/12 11:09:32;;;;;;;4.30;3.10;;;23.80;84.60;;;;;;5010155;28;20423;-74
2022/05/12 11:12:05;;;;;;;3.60;3.30;;;23.90;84.10;;;;;;5013342;28;20428;-74
2022/05/12 11:14:39;;;;;;;3.70;2.80;;;23.80;83.90;;;;;;5008986;28;20829;-77
2022/05/12 11:17:12;;;;;;;3.90;3.00;;;23.90;84.40;;;;;;5010354;28;20442;-75
2022/05/12 11:19:45;;;;;;;5.77;2.90;;;24.00;83.00;;;;;;5005536;28;20478;-77
2022/05/12 11:22:11;;;;;;;5.70;3.00;;;24.00;83.50;;;;;;5010360;28;20538;-76
2022/05/12 11:24:43;;;;;;;3.67;2.70;;;24.10;82.80;;;;;;5007321;28;20533;-78
2022/05/12 11:27:39;;;;;;;3.87;3.10;;;24.20;82.30;;;;;;5010446;28;20208;-77
2022/05/12 11:30:25;;;;;;;4.93;3.27;;;24.20;81.70;;;;;;5030507;28;20442;-78
2022/05/12 11:33:02;;;;;;;5.53;2.73;;;24.30;82.20;;;;;;5012714;28;25012;-75
2022/05/12 11:35:49;;;;;;;3.30;3.00;;;24.30;82.50;;;;;;5016172;28;20529;-80
2022/05/12 11:38:37;;;;;;;3.47;2.90;;;24.30;81.60;;;;;;5022157;28;20946;-75
2022/05/12 11:41:04;;;;;;;4.80;2.63;;;24.60;81.20;;;;;;5010927;28;21129;-77
2022/05/12 11:46:41;;;;;;;5.10;2.90;;;24.90;79.40;;;;;;5023102;28;20473;-79
2022/05/12 11:49:31;;;;;;;2.90;2.60;;;24.90;79.10;;;;;;5036374;28;20441;-81
2022/05/12 11:52:35;;;;;;;4.57;2.90;;;24.80;80.70;;;;;;5028769;28;20423;-80
2022/05/12 11:55:06;;;;;;;2.90;2.70;;;24.90;79.30;;;;;;5030027;28;20462;-81
2022/05/12 11:57:44;;;;;;;3.27;2.97;;;25.30;78.30;;;;;;5036833;28;20469;-83
2022/05/12 12:00:32;;;;;;;3.10;2.70;;;25.90;77.30;;;;;;5027408;28;20496;-80
2022/05/12 12:02:57;;;;;;;3.77;2.80;;;25.90;75.60;;;;;;5030827;28;20454;-80
2022/05/12 12:05:49;;;;;;;3.47;2.73;;;27.60;74.80;;;;;;5031138;28;20474;-80
2022/05/12 12:08:38;;;;;;;4.87;3.03;;;28.10;70.30;;;;;;5029244;28;20216;-81
2022/05/12 12:11:25;;;;;;;3.57;2.90;;;28.90;70.40;;;;;;5021458;28;20550;-81
2022/05/12 12:13:56;;;;;;;5.03;3.33;;;29.20;65.30;;;;;;5016459;28;20466;-80
2022/05/12 12:16:26;;;;;;;3.00;2.73;;;30.50;64.90;;;;;;5024976;28;20481;-82
2022/05/12 12:18:59;;;;;;;4.73;3.30;;;30.90;61.00;;;;;;5023796;28;21199;-81
2022/05/12 12:21:35;;;;;;;3.60;3.00;;;30.20;61.50;;;;;;5019439;28;20430;-79
2022/05/12 12:24:19;;;;;;;7.50;2.90;;;29.10;63.80;;;;;;5031062;28;21163;-80
2022/05/12 12:26:50;;;;;;;5.00;3.13;;;27.90;66.80;;;;;;5022475;28;20480;-79
2022/05/12 12:29:21;;;;;;;4.53;3.30;;;27.20;68.70;;;;;;5016368;28;20431;-80
2022/05/12 12:31:52;;;;;;;4.20;3.10;;;27.00;68.80;;;;;;5022219;28;20438;-82
2022/05/12 12:34:22;;;;;;;2.73;2.53;;;27.10;69.70;;;;;;5023158;28;20481;-80
2022/05/12 12:36:57;;;;;;;3.50;3.17;;;27.40;69.30;;;;;;5022194;28;20442;-80
2022/05/12 12:39:41;;;;;;;3.40;3.03;;;28.50;67.80;;;;;;5032167;28;20820;-82
2022/05/12 12:42:21;;;;;;;3.93;3.03;;;28.70;66.00;;;;;;5024349;28;20852;-82
2022/05/12 12:44:51;;;;;;;6.00;3.30;;;28.00;66.60;;;;;;5021247;28;20509;-80
2022/05/12 12:47:40;;;;;;;3.10;2.80;;;28.50;66.60;;;;;;5024102;28;20538;-82
2022/05/12 12:50:21;;;;;;;5.47;2.83;;;28.50;65.00;;;;;;5022128;28;20695;-81
2022/05/12 12:52:50;;;;;;;8.03;3.10;;;28.70;64.20;;;;;;5019227;28;20538;-81
2022/05/12 12:58:45;;;;;;;4.87;3.33;;;27.40;65.60;;;;;;5019043;28;20426;-80
2022/05/12 13:01:14;;;;;;;4.57;3.27;;;27.70;68.90;;;;;;5018171;28;21174;-84
2022/05/12 13:04:04;;;;;;;4.03;3.23;;;28.60;66.40;;;;;;5019235;28;20558;-83
2022/05/12 13:06:37;;;;;;;2.87;2.57;;;29.40;64.70;;;;;;5022230;28;20463;-83
2022/05/12 13:09:10;;;;;;;4.90;2.90;;;29.70;62.40;;;;;;5037207;28;20431;-88
2022/05/12 13:11:39;;;;;;;3.40;3.10;;;29.80;61.20;;;;;;5038684;28;20423;-82
2022/05/12 13:14:09;;;;;;;3.50;3.10;;;30.40;60.30;;;;;;5035596;28;20435;-81
2022/05/12 13:16:40;;;;;;;6.33;3.37;;;29.70;60.10;;;;;;5033077;28;20451;-80
2022/05/12 13:19:07;;;;;;;4.33;3.07;;;29.60;62.00;;;;;;5009612;28;20438;-83
2022/05/12 13:21:45;;;;;;;4.03;3.23;;;29.70;61.30;;;;;;5014661;28;20444;-82
2022/05/12 13:24:22;;;;;;;4.10;3.23;;;29.80;61.10;;;;;;5017124;28;20451;-82
2022/05/12 13:26:49;;;;;;;4.60;3.20;;;29.80;60.40;;;;;;5019284;28;21509;-82
2022/05/12 13:29:39;;;;;;;4.23;3.50;;;29.40;60.90;;;;;;5008897;28;21083;-76
2022/05/12 13:32:26;;;;;;;5.10;3.40;;;29.80;61.60;;;;;;5010493;28;20889;-75
2022/05/12 13:34:53;;;;;;;4.10;2.93;;;29.90;60.60;;;;;;5006642;28;20479;-75